sensor_id;sensor_type;location;lat;lon;timestamp;P1;durP1;ratioP1;P2;durP2;ratioP2
28774;SDS011;15926;51.348;6.596;2023-07-24T04:04:39;11.73;;;6.13;;
28774;SDS011;15926;51.348;6.596;2023-07-24T04:07:05;12.50;;;6.50;;
28774;SDS011;15926;51.348;6.596;2023-07-24T04:09:31;11.15;;;6.00;;
28774;SDS011;15926;51.348;6.596;2023-07-24T04:11:57;13.10;;;6.22;;
28774;SDS011;15926;51.348;6.596;2023-07-24T04:14:23;11.57;;;6.75;;
28774;SDS011;15926;51.348;6.596;2023-07-24T04:16:49;13.73;;;7.07;;
28774;SDS011;15926;51.348;6.596;2023-07-24T04:19:15;14.02;;;6.78;;
28774;SDS011;15926;51.348;6.596;2023-07-24T04:21:41;12.20;;;6.78;;
28774;SDS011;15926;51.348;6.596;2023-07-24T04:24:07;16.13;;;6.35;;
28774;SDS011;15926;51.348;6.596;2023-07-24T04:26:33;11.45;;;6.65;;
28774;SDS011;15926;51.348;6.596;2023-07-24T04:29:00;10.52;;;6.55;;
28774;SDS011;15926;51.348;6.596;2023-07-24T04:31:26;10.05;;;6.47;;
28774;SDS011;15926;51.348;6.596;2023-07-24T04:33:52;9.38;;;6.53;;
28774;SDS011;15926;51.348;6.596;2023-07-24T04:36:17;12.93;;;6.22;;
28774;SDS011;15926;51.348;6.596;2023-07-24T04:38:43;10.73;;;6.53;;
28774;SDS011;15926;51.348;6.596;2023-07-24T04:41:12;12.95;;;6.55;;
28774;SDS011;15926;51.348;6.596;2023-07-24T04:43:38;12.57;;;6.55;;
28774;SDS011;15926;51.348;6.596;2023-07-24T04:46:04;11.55;;;6.60;;
28774;SDS011;15926;51.348;6.596;2023-07-24T04:48:30;12.23;;;6.57;;
28774;SDS011;15926;51.348;6.596;2023-07-24T04:50:56;9.02;;;6.88;;
28774;SDS011;15926;51.348;6.596;2023-07-24T04:53:22;13.95;;;7.10;;
28774;SDS011;15926;51.348;6.596;2023-07-24T04:55:48;10.18;;;6.57;;
28774;SDS011;15926;51.348;6.596;2023-07-24T04:58:14;12.75;;;6.05;;
28774;SDS011;15926;51.348;6.596;2023-07-24T05:00:40;11.77;;;6.28;;
28774;SDS011;15926;51.348;6.596;2023-07-24T05:03:06;10.18;;;6.40;;
28774;SDS011;15926;51.348;6.596;2023-07-24T05:08:01;9.20;;;5.63;;
28774;SDS011;15926;51.348;6.596;2023-07-24T05:10:27;8.80;;;6.40;;
28774;SDS011;15926;51.348;6.596;2023-07-24T05:12:53;8.55;;;5.38;;
28774;SDS011;15926;51.348;6.596;2023-07-24T05:15:21;9.52;;;5.80;;
28774;SDS011;15926;51.348;6.596;2023-07-24T05:17:47;10.52;;;5.65;;
28774;SDS011;15926;51.348;6.596;2023-07-24T05:20:13;7.70;;;5.63;;
28774;SDS011;15926;51.348;6.596;2023-07-24T05:22:39;10.60;;;6.13;;
28774;SDS011;15926;51.348;6.596;2023-07-24T05:25:05;8.98;;;6.38;;
28774;SDS011;15926;51.348;6.596;2023-07-24T05:27:31;11.60;;;5.85;;
28774;SDS011;15926;51.348;6.596;2023-07-24T05:29:57;11.18;;;5.75;;
28774;SDS011;15926;51.348;6.596;2023-07-24T05:32:23;9.43;;;5.88;;
28774;SDS011;15926;51.348;6.596;2023-07-24T05:34:49;7.45;;;5.70;;
28774;SDS011;15926;51.348;6.596;2023-07-24T05:37:15;8.02;;;5.40;;
28774;SDS011;15926;51.348;6.596;2023-07-24T05:39:41;10.05;;;6.18;;
28774;SDS011;15926;51.348;6.596;2023-07-24T05:42:07;11.20;;;6.30;;
28774;SDS011;15926;51.348;6.596;2023-07-24T05:44:33;6.97;;;5.68;;
28774;SDS011;15926;51.348;6.596;2023-07-24T05:47:02;11.85;;;5.63;;
28774;SDS011;15926;51.348;6.596;2023-07-24T05:49:28;8.50;;;5.65;;
28774;SDS011;15926;51.348;6.596;2023-07-24T05:51:54;10.63;;;5.68;;
28774;SDS011;15926;51.348;6.596;2023-07-24T05:54:21;9.55;;;6.00;;
28774;SDS011;15926;51.348;6.596;2023-07-24T05:56:47;10.63;;;5.75;;
28774;SDS011;15926;51.348;6.596;2023-07-24T05:59:13;8.55;;;6.03;;
28774;SDS011;15926;51.348;6.596;2023-07-24T06:01:39;9.93;;;5.25;;
28774;SDS011;15926;51.348;6.596;2023-07-24T06:04:05;10.90;;;5.43;;
28774;SDS011;15926;51.348;6.596;2023-07-24T06:06:32;7.30;;;5.05;;
28774;SDS011;15926;51.348;6.596;2023-07-24T06:08:58;8.85;;;5.15;;
28774;SDS011;15926;51.348;6.596;2023-07-24T06:11:24;10.20;;;5.20;;
28774;SDS011;15926;51.348;6.596;2023-07-24T06:13:51;10.85;;;4.75;;
28774;SDS011;15926;51.348;6.596;2023-07-24T06:16:18;6.95;;;4.65;;
28774;SDS011;15926;51.348;6.596;2023-07-24T06:18:44;6.68;;;4.70;;
28774;SDS011;15926;51.348;6.596;2023-07-24T06:21:10;8.68;;;4.55;;
28774;SDS011;15926;51.348;6.596;2023-07-24T06:23:36;6.47;;;4.55;;
28774;SDS011;15926;51.348;6.596;2023-07-24T06:26:02;6.85;;;4.93;;
28774;SDS011;15926;51.348;6.596;2023-07-24T06:28:31;7.22;;;4.38;;
28774;SDS011;15926;51.348;6.596;2023-07-24T06:30:58;7.97;;;3.88;;
28774;SDS011;15926;51.348;6.596;2023-07-24T06:33:24;5.07;;;4.47;;
28774;SDS011;15926;51.348;6.596;2023-07-24T06:35:50;6.32;;;4.65;;
28774;SDS011;15926;51.348;6.596;2023-07-24T06:38:16;5.38;;;4.47;;
28774;SDS011;15926;51.348;6.596;2023-07-24T06:40:42;5.18;;;3.95;;
28774;SDS011;15926;51.348;6.596;2023-07-24T06:43:08;4.38;;;3.95;;
28774;SDS011;15926;51.348;6.596;2023-07-24T06:45:34;4.88;;;3.97;;
28774;SDS011;15926;51.348;6.596;2023-07-24T06:48:00;6.97;;;4.32;;
28774;SDS011;15926;51.348;6.596;2023-07-24T06:50:26;4.72;;;3.33;;
28774;SDS011;15926;51.348;6.596;2023-07-24T06:52:52;7.78;;;4.38;;
28774;SDS011;15926;51.348;6.596;2023-07-24T06:55:19;4.95;;;4.15;;
28774;SDS011;15926;51.348;6.596;2023-07-24T06:57:45;6.88;;;4.15;;
28774;SDS011;15926;51.348;6.596;2023-07-24T07:00:11;9.85;;;4.43;;
28774;SDS011;15926;51.348;6.596;2023-07-24T07:02:37;5.18;;;4.45;;
28774;SDS011;15926;51.348;6.596;2023-07-24T07:05:03;8.63;;;4.57;;
28774;SDS011;15926;51.348;6.596;2023-07-24T07:07:30;5.90;;;4.97;;
28774;SDS011;15926;51.348;6.596;2023-07-24T07:09:56;5.32;;;4.65;;
28774;SDS011;15926;51.348;6.596;2023-07-24T07:12:22;7.82;;;4.55;;
28774;SDS011;15926;51.348;6.596;2023-07-24T07:14:48;5.70;;;4.70;;
28774;SDS011;15926;51.348;6.596;2023-07-24T07:17:14;6.03;;;4.43;;
28774;SDS011;15926;51.348;6.596;2023-07-24T07:19:40;5.05;;;4.53;;
28774;SDS011;15926;51.348;6.596;2023-07-24T07:22:06;10.85;;;5.15;;
28774;SDS011;15926;51.348;6.596;2023-07-24T07:24:32;7.82;;;5.05;;
28774;SDS011;15926;51.348;6.596;2023-07-24T07:26:58;10.85;;;4.90;;
28774;SDS011;15926;51.348;6.596;2023-07-24T07:29:24;5.95;;;4.72;;
28774;SDS011;15926;51.348;6.596;2023-07-24T07:31:50;4.80;;;4.40;;
28774;SDS011;15926;51.348;6.596;2023-07-24T07:34:16;4.07;;;3.78;;
28774;SDS011;15926;51.348;6.596;2023-07-24T07:36:42;7.90;;;4.82;;
28774;SDS011;15926;51.348;6.596;2023-07-24T07:39:08;4.75;;;4.15;;
28774;SDS011;15926;51.348;6.596;2023-07-24T07:41:34;5.03;;;4.28;;
28774;SDS011;15926;51.348;6.596;2023-07-24T07:44:00;5.20;;;3.75;;
28774;SDS011;15926;51.348;6.596;2023-07-24T07:46:26;4.53;;;3.38;;
28774;SDS011;15926;51.348;6.596;2023-07-24T07:48:52;5.78;;;3.58;;
28774;SDS011;15926;51.348;6.596;2023-07-24T07:51:18;5.55;;;3.10;;
28774;SDS011;15926;51.348;6.596;2023-07-24T07:53:44;5.45;;;3.17;;
28774;SDS011;15926;51.348;6.596;2023-07-24T07:56:10;2.90;;;2.70;;
28774;SDS011;15926;51.348;6.596;2023-07-24T07:58:36;4.03;;;2.60;;
28774;SDS011;15926;51.348;6.596;2023-07-24T08:01:03;4.88;;;2.78;;
28774;SDS011;15926;51.348;6.596;2023-07-24T08:03:29;3.60;;;3.05;;
28774;SDS011;15926;51.348;6.596;2023-07-24T08:05:58;3.20;;;2.72;;
28774;SDS011;15926;51.348;6.596;2023-07-24T08:08:24;2.85;;;2.50;;
28774;SDS011;15926;51.348;6.596;2023-07-24T08:10:50;3.65;;;2.97;;
28774;SDS011;15926;51.348;6.596;2023-07-24T08:13:16;2.83;;;2.63;;
28774;SDS011;15926;51.348;6.596;2023-07-24T08:15:42;2.70;;;2.50;;
28774;SDS011;15926;51.348;6.596;2023-07-24T08:18:08;2.78;;;2.53;;
28774;SDS011;15926;51.348;6.596;2023-07-24T08:20:35;2.63;;;2.50;;
28774;SDS011;15926;51.348;6.596;2023-07-24T08:23:01;2.30;;;2.10;;
28774;SDS011;15926;51.348;6.596;2023-07-24T08:25:27;3.47;;;2.08;;
28774;SDS011;15926;51.348;6.596;2023-07-24T08:27:53;2.67;;;2.20;;
28774;SDS011;15926;51.348;6.596;2023-07-24T08:30:22;2.60;;;2.40;;
28774;SDS011;15926;51.348;6.596;2023-07-24T08:32:48;1.98;;;1.80;;
28774;SDS011;15926;51.348;6.596;2023-07-24T08:35:16;2.20;;;2.00;;
28774;SDS011;15926;51.348;6.596;2023-07-24T08:37:42;3.20;;;2.38;;
28774;SDS011;15926;51.348;6.596;2023-07-24T08:40:09;1.98;;;1.88;;
28774;SDS011;15926;51.348;6.596;2023-07-24T08:42:37;3.30;;;1.88;;
28774;SDS011;15926;51.348;6.596;2023-07-24T08:45:05;1.85;;;1.75;;
28774;SDS011;15926;51.348;6.596;2023-07-24T08:47:31;3.08;;;2.00;;
28774;SDS011;15926;51.348;6.596;2023-07-24T08:49:57;5.15;;;2.30;;
28774;SDS011;15926;51.348;6.596;2023-07-24T08:52:24;2.95;;;1.80;;
28774;SDS011;15926;51.348;6.596;2023-07-24T08:54:50;2.40;;;2.05;;
28774;SDS011;15926;51.348;6.596;2023-07-24T08:57:17;1.98;;;1.88;;
28774;SDS011;15926;51.348;6.596;2023-07-24T08:59:43;4.22;;;1.70;;
28774;SDS011;15926;51.348;6.596;2023-07-24T09:02:09;2.10;;;1.90;;
28774;SDS011;15926;51.348;6.596;2023-07-24T09:04:35;3.58;;;1.73;;
28774;SDS011;15926;51.348;6.596;2023-07-24T09:07:01;1.90;;;1.70;;
28774;SDS011;15926;51.348;6.596;2023-07-24T09:09:30;2.90;;;2.10;;
28774;SDS011;15926;51.348;6.596;2023-07-24T09:14:25;1.63;;;1.52;;
28774;SDS011;15926;51.348;6.596;2023-07-24T09:17:04;2.00;;;1.80;;
28774;SDS011;15926;51.348;6.596;2023-07-24T09:19:30;2.03;;;1.80;;
28774;SDS011;15926;51.348;6.596;2023-07-24T09:21:56;1.75;;;1.42;;
28774;SDS011;15926;51.348;6.596;2023-07-24T09:24:32;1.40;;;1.30;;
28774;SDS011;15926;51.348;6.596;2023-07-24T09:26:58;2.72;;;1.63;;
28774;SDS011;15926;51.348;6.596;2023-07-24T09:29:30;4.50;;;1.90;;
28774;SDS011;15926;51.348;6.596;2023-07-24T09:31:56;1.85;;;1.75;;
28774;SDS011;15926;51.348;6.596;2023-07-24T09:34:22;2.03;;;1.92;;
28774;SDS011;15926;51.348;6.596;2023-07-24T09:36:50;2.38;;;2.17;;
28774;SDS011;15926;51.348;6.596;2023-07-24T09:39:22;3.30;;;2.03;;
28774;SDS011;15926;51.348;6.596;2023-07-24T09:41:48;2.42;;;2.22;;
28774;SDS011;15926;51.348;6.596;2023-07-24T09:44:14;2.05;;;1.95;;
28774;SDS011;15926;51.348;6.596;2023-07-24T09:46:41;3.17;;;2.10;;
28774;SDS011;15926;51.348;6.596;2023-07-24T09:49:08;2.42;;;2.05;;
28774;SDS011;15926;51.348;6.596;2023-07-24T09:51:34;3.55;;;2.63;;
28774;SDS011;15926;51.348;6.596;2023-07-24T09:54:08;2.40;;;2.20;;
28774;SDS011;15926;51.348;6.596;2023-07-24T09:56:36;2.08;;;1.98;;
28774;SDS011;15926;51.348;6.596;2023-07-24T09:59:02;2.17;;;2.03;;
28774;SDS011;15926;51.348;6.596;2023-07-24T10:01:29;3.30;;;2.42;;
28774;SDS011;15926;51.348;6.596;2023-07-24T10:06:23;2.30;;;2.10;;
28774;SDS011;15926;51.348;6.596;2023-07-24T10:08:50;2.70;;;2.22;;
28774;SDS011;15926;51.348;6.596;2023-07-24T10:11:16;2.30;;;2.10;;
28774;SDS011;15926;51.348;6.596;2023-07-24T10:13:42;3.30;;;2.10;;
28774;SDS011;15926;51.348;6.596;2023-07-24T10:16:08;2.78;;;2.45;;
28774;SDS011;15926;51.348;6.596;2023-07-24T10:18:35;2.38;;;2.17;;
28774;SDS011;15926;51.348;6.596;2023-07-24T10:21:07;2.38;;;2.17;;
28774;SDS011;15926;51.348;6.596;2023-07-24T10:23:34;3.47;;;2.20;;
28774;SDS011;15926;51.348;6.596;2023-07-24T10:26:04;2.70;;;2.50;;
28774;SDS011;15926;51.348;6.596;2023-07-24T10:28:31;4.57;;;2.80;;
28774;SDS011;15926;51.348;6.596;2023-07-24T10:30:57;3.20;;;2.90;;
28774;SDS011;15926;51.348;6.596;2023-07-24T10:33:23;3.22;;;2.92;;
28774;SDS011;15926;51.348;6.596;2023-07-24T10:35:53;4.72;;;2.97;;
28774;SDS011;15926;51.348;6.596;2023-07-24T10:38:20;6.50;;;2.97;;
28774;SDS011;15926;51.348;6.596;2023-07-24T10:41:01;3.30;;;3.00;;
28774;SDS011;15926;51.348;6.596;2023-07-24T10:43:27;3.38;;;3.08;;
28774;SDS011;15926;51.348;6.596;2023-07-24T10:45:53;3.28;;;2.92;;
28774;SDS011;15926;51.348;6.596;2023-07-24T10:48:20;3.67;;;3.13;;
28774;SDS011;15926;51.348;6.596;2023-07-24T10:50:47;2.65;;;2.45;;
28774;SDS011;15926;51.348;6.596;2023-07-24T10:53:14;4.57;;;2.15;;
28774;SDS011;15926;51.348;6.596;2023-07-24T10:55:41;4.10;;;2.20;;
28774;SDS011;15926;51.348;6.596;2023-07-24T10:58:07;3.20;;;1.98;;
28774;SDS011;15926;51.348;6.596;2023-07-24T11:00:36;2.35;;;2.15;;
28774;SDS011;15926;51.348;6.596;2023-07-24T11:03:04;3.00;;;2.15;;
28774;SDS011;15926;51.348;6.596;2023-07-24T11:05:30;2.55;;;1.95;;
28774;SDS011;15926;51.348;6.596;2023-07-24T11:07:57;2.72;;;2.53;;
28774;SDS011;15926;51.348;6.596;2023-07-24T11:10:23;3.75;;;2.40;;
28774;SDS011;15926;51.348;6.596;2023-07-24T11:12:49;5.75;;;2.80;;
28774;SDS011;15926;51.348;6.596;2023-07-24T11:15:16;2.47;;;2.28;;
28774;SDS011;15926;51.348;6.596;2023-07-24T11:17:48;4.63;;;2.90;;
28774;SDS011;15926;51.348;6.596;2023-07-24T11:20:16;4.95;;;3.10;;
28774;SDS011;15926;51.348;6.596;2023-07-24T11:22:43;4.03;;;2.58;;
28774;SDS011;15926;51.348;6.596;2023-07-24T11:25:10;3.22;;;2.83;;
28774;SDS011;15926;51.348;6.596;2023-07-24T11:27:42;3.30;;;3.00;;
28774;SDS011;15926;51.348;6.596;2023-07-24T11:30:09;3.90;;;3.47;;
28774;SDS011;15926;51.348;6.596;2023-07-24T11:32:37;4.05;;;3.05;;
28774;SDS011;15926;51.348;6.596;2023-07-24T11:35:03;3.17;;;2.88;;
28774;SDS011;15926;51.348;6.596;2023-07-24T11:37:30;4.32;;;2.97;;
28774;SDS011;15926;51.348;6.596;2023-07-24T11:39:57;2.92;;;2.65;;
28774;SDS011;15926;51.348;6.596;2023-07-24T11:42:27;2.25;;;2.05;;
28774;SDS011;15926;51.348;6.596;2023-07-24T11:44:53;2.05;;;1.95;;
28774;SDS011;15926;51.348;6.596;2023-07-24T11:47:19;2.50;;;2.17;;
28774;SDS011;15926;51.348;6.596;2023-07-24T11:49:56;1.73;;;1.60;;
28774;SDS011;15926;51.348;6.596;2023-07-24T11:52:22;3.00;;;1.58;;
28774;SDS011;15926;51.348;6.596;2023-07-24T11:54:55;2.10;;;1.98;;
28774;SDS011;15926;51.348;6.596;2023-07-24T11:57:25;2.42;;;1.92;;
28774;SDS011;15926;51.348;6.596;2023-07-24T11:59:51;1.70;;;1.60;;
28774;SDS011;15926;51.348;6.596;2023-07-24T12:02:18;1.80;;;1.70;;
28774;SDS011;15926;51.348;6.596;2023-07-24T12:04:44;2.42;;;1.63;;
28774;SDS011;15926;51.348;6.596;2023-07-24T12:07:10;2.38;;;1.80;;
28774;SDS011;15926;51.348;6.596;2023-07-24T12:09:36;1.95;;;1.70;;
28774;SDS011;15926;51.348;6.596;2023-07-24T12:12:05;1.75;;;1.45;;
28774;SDS011;15926;51.348;6.596;2023-07-24T12:14:40;2.08;;;1.73;;
28774;SDS011;15926;51.348;6.596;2023-07-24T12:17:06;1.30;;;1.20;;
28774;SDS011;15926;51.348;6.596;2023-07-24T12:19:35;2.33;;;1.80;;
28774;SDS011;15926;51.348;6.596;2023-07-24T12:22:01;2.58;;;1.70;;
28774;SDS011;15926;51.348;6.596;2023-07-24T12:24:29;1.88;;;1.77;;
28774;SDS011;15926;51.348;6.596;2023-07-24T12:26:55;2.95;;;1.65;;
28774;SDS011;15926;51.348;6.596;2023-07-24T12:29:21;1.77;;;1.67;;
28774;SDS011;15926;51.348;6.596;2023-07-24T12:31:47;2.78;;;1.70;;
28774;SDS011;15926;51.348;6.596;2023-07-24T12:34:13;1.80;;;1.70;;
28774;SDS011;15926;51.348;6.596;2023-07-24T12:36:39;1.80;;;1.70;;
28774;SDS011;15926;51.348;6.596;2023-07-24T12:39:05;1.80;;;1.70;;
28774;SDS011;15926;51.348;6.596;2023-07-24T12:41:30;1.77;;;1.67;;
28774;SDS011;15926;51.348;6.596;2023-07-24T12:43:57;1.90;;;1.80;;
28774;SDS011;15926;51.348;6.596;2023-07-24T12:46:22;2.33;;;1.60;;
28774;SDS011;15926;51.348;6.596;2023-07-24T12:48:48;1.98;;;1.65;;
28774;SDS011;15926;51.348;6.596;2023-07-24T12:51:14;1.40;;;1.30;;
28774;SDS011;15926;51.348;6.596;2023-07-24T12:53:40;1.70;;;1.58;;
28774;SDS011;15926;51.348;6.596;2023-07-24T12:56:06;3.67;;;1.50;;
28774;SDS011;15926;51.348;6.596;2023-07-24T12:58:32;1.65;;;1.55;;
28774;SDS011;15926;51.348;6.596;2023-07-24T13:00:58;1.88;;;1.70;;
28774;SDS011;15926;51.348;6.596;2023-07-24T13:03:24;1.40;;;1.17;;
28774;SDS011;15926;51.348;6.596;2023-07-24T13:05:50;1.40;;;1.30;;
28774;SDS011;15926;51.348;6.596;2023-07-24T13:08:16;1.60;;;1.50;;
28774;SDS011;15926;51.348;6.596;2023-07-24T13:10:46;2.30;;;1.63;;
28774;SDS011;15926;51.348;6.596;2023-07-24T13:13:12;1.45;;;1.35;;
28774;SDS011;15926;51.348;6.596;2023-07-24T13:15:38;1.92;;;1.67;;
28774;SDS011;15926;51.348;6.596;2023-07-24T13:18:04;1.70;;;1.60;;
28774;SDS011;15926;51.348;6.596;2023-07-24T13:20:30;1.77;;;1.67;;
28774;SDS011;15926;51.348;6.596;2023-07-24T13:22:56;1.83;;;1.73;;
28774;SDS011;15926;51.348;6.596;2023-07-24T13:25:22;1.60;;;1.50;;
28774;SDS011;15926;51.348;6.596;2023-07-24T13:27:48;1.50;;;1.40;;
28774;SDS011;15926;51.348;6.596;2023-07-24T13:30:15;2.90;;;1.20;;
28774;SDS011;15926;51.348;6.596;2023-07-24T13:32:43;3.28;;;1.58;;
28774;SDS011;15926;51.348;6.596;2023-07-24T13:35:09;1.42;;;1.33;;
28774;SDS011;15926;51.348;6.596;2023-07-24T13:37:35;3.08;;;1.30;;
28774;SDS011;15926;51.348;6.596;2023-07-24T13:40:01;1.35;;;1.25;;
28774;SDS011;15926;51.348;6.596;2023-07-24T13:42:27;1.20;;;1.20;;
28774;SDS011;15926;51.348;6.596;2023-07-24T13:44:52;1.08;;;0.98;;
28774;SDS011;15926;51.348;6.596;2023-07-24T13:47:18;1.75;;;1.63;;
28774;SDS011;15926;51.348;6.596;2023-07-24T13:49:46;2.47;;;1.40;;
28774;SDS011;15926;51.348;6.596;2023-07-24T13:52:12;1.30;;;1.20;;
28774;SDS011;15926;51.348;6.596;2023-07-24T13:54:38;1.45;;;1.35;;
28774;SDS011;15926;51.348;6.596;2023-07-24T13:57:04;1.30;;;1.20;;
28774;SDS011;15926;51.348;6.596;2023-07-24T13:59:32;1.85;;;1.30;;
28774;SDS011;15926;51.348;6.596;2023-07-24T14:01:58;1.75;;;1.42;;
28774;SDS011;15926;51.348;6.596;2023-07-24T14:04:24;1.50;;;1.40;;
28774;SDS011;15926;51.348;6.596;2023-07-24T14:06:50;1.73;;;1.63;;
28774;SDS011;15926;51.348;6.596;2023-07-24T14:09:16;1.88;;;1.77;;
28774;SDS011;15926;51.348;6.596;2023-07-24T14:11:42;1.70;;;1.60;;
28774;SDS011;15926;51.348;6.596;2023-07-24T14:14:08;1.92;;;1.50;;
28774;SDS011;15926;51.348;6.596;2023-07-24T14:16:34;1.85;;;1.70;;
28774;SDS011;15926;51.348;6.596;2023-07-24T14:19:00;2.45;;;1.60;;
28774;SDS011;15926;51.348;6.596;2023-07-24T14:21:26;1.90;;;1.80;;
28774;SDS011;15926;51.348;6.596;2023-07-24T14:23:52;3.35;;;2.30;;
28774;SDS011;15926;51.348;6.596;2023-07-24T14:26:18;3.17;;;1.90;;
28774;SDS011;15926;51.348;6.596;2023-07-24T14:28:44;2.63;;;2.03;;
28774;SDS011;15926;51.348;6.596;2023-07-24T14:31:10;2.22;;;2.13;;
28774;SDS011;15926;51.348;6.596;2023-07-24T14:33:36;2.65;;;1.67;;
28774;SDS011;15926;51.348;6.596;2023-07-24T14:36:02;2.65;;;1.80;;
28774;SDS011;15926;51.348;6.596;2023-07-24T14:38:28;2.53;;;1.92;;
28774;SDS011;15926;51.348;6.596;2023-07-24T14:40:54;1.80;;;1.70;;
28774;SDS011;15926;51.348;6.596;2023-07-24T14:43:20;1.77;;;1.67;;
28774;SDS011;15926;51.348;6.596;2023-07-24T14:45:46;1.90;;;1.80;;
28774;SDS011;15926;51.348;6.596;2023-07-24T14:48:13;1.88;;;1.50;;
28774;SDS011;15926;51.348;6.596;2023-07-24T14:50:41;2.28;;;1.33;;
28774;SDS011;15926;51.348;6.596;2023-07-24T14:53:07;2.35;;;2.08;;
28774;SDS011;15926;51.348;6.596;2023-07-24T14:55:33;1.60;;;1.50;;
28774;SDS011;15926;51.348;6.596;2023-07-24T14:57:59;1.77;;;1.67;;
28774;SDS011;15926;51.348;6.596;2023-07-24T15:00:25;1.73;;;1.63;;
28774;SDS011;15926;51.348;6.596;2023-07-24T15:02:51;2.20;;;2.00;;
28774;SDS011;15926;51.348;6.596;2023-07-24T15:05:17;3.08;;;2.40;;
28774;SDS011;15926;51.348;6.596;2023-07-24T15:07:43;2.97;;;2.15;;
28774;SDS011;15926;51.348;6.596;2023-07-24T15:10:09;2.53;;;2.33;;
28774;SDS011;15926;51.348;6.596;2023-07-24T15:12:36;2.20;;;2.00;;
28774;SDS011;15926;51.348;6.596;2023-07-24T15:15:02;2.53;;;2.30;;
28774;SDS011;15926;51.348;6.596;2023-07-24T15:17:29;2.58;;;2.03;;
28774;SDS011;15926;51.348;6.596;2023-07-24T15:19:55;1.50;;;1.27;;
28774;SDS011;15926;51.348;6.596;2023-07-24T15:22:21;1.83;;;1.73;;
28774;SDS011;15926;51.348;6.596;2023-07-24T15:24:48;1.75;;;1.65;;
28774;SDS011;15926;51.348;6.596;2023-07-24T15:27:14;1.60;;;1.48;;
28774;SDS011;15926;51.348;6.596;2023-07-24T15:29:40;1.50;;;1.40;;
28774;SDS011;15926;51.348;6.596;2023-07-24T15:32:06;3.70;;;2.03;;
28774;SDS011;15926;51.348;6.596;2023-07-24T15:34:32;1.88;;;1.50;;
28774;SDS011;15926;51.348;6.596;2023-07-24T15:36:58;1.80;;;1.70;;
28774;SDS011;15926;51.348;6.596;2023-07-24T15:39:24;2.30;;;1.75;;
28774;SDS011;15926;51.348;6.596;2023-07-24T15:41:50;2.55;;;2.10;;
28774;SDS011;15926;51.348;6.596;2023-07-24T15:44:16;2.15;;;2.05;;
28774;SDS011;15926;51.348;6.596;2023-07-24T15:46:42;2.20;;;1.98;;
28774;SDS011;15926;51.348;6.596;2023-07-24T15:49:09;2.85;;;2.13;;
28774;SDS011;15926;51.348;6.596;2023-07-24T15:51:35;4.43;;;2.33;;
28774;SDS011;15926;51.348;6.596;2023-07-24T15:54:01;4.05;;;2.50;;
28774;SDS011;15926;51.348;6.596;2023-07-24T15:56:29;3.78;;;2.70;;
28774;SDS011;15926;51.348;6.596;2023-07-24T15:58:55;3.13;;;2.83;;
28774;SDS011;15926;51.348;6.596;2023-07-24T16:01:21;6.47;;;3.72;;
28774;SDS011;15926;51.348;6.596;2023-07-24T16:03:47;5.03;;;4.20;;
28774;SDS011;15926;51.348;6.596;2023-07-24T16:06:13;4.95;;;4.43;;
28774;SDS011;15926;51.348;6.596;2023-07-24T16:08:40;4.95;;;4.55;;
28774;SDS011;15926;51.348;6.596;2023-07-24T16:11:07;5.28;;;4.85;;
28774;SDS011;15926;51.348;6.596;2023-07-24T16:13:35;7.47;;;6.05;;
28774;SDS011;15926;51.348;6.596;2023-07-24T16:16:01;6.18;;;5.60;;
28774;SDS011;15926;51.348;6.596;2023-07-24T16:18:27;6.45;;;6.00;;
28774;SDS011;15926;51.348;6.596;2023-07-24T16:20:53;6.53;;;5.65;;
28774;SDS011;15926;51.348;6.596;2023-07-24T16:23:19;9.43;;;7.32;;
28774;SDS011;15926;51.348;6.596;2023-07-24T16:25:45;7.53;;;6.85;;
28774;SDS011;15926;51.348;6.596;2023-07-24T16:28:11;6.32;;;5.65;;
28774;SDS011;15926;51.348;6.596;2023-07-24T16:30:37;6.68;;;6.13;;
28774;SDS011;15926;51.348;6.596;2023-07-24T16:33:03;4.65;;;4.25;;
28774;SDS011;15926;51.348;6.596;2023-07-24T16:35:30;4.45;;;4.10;;
28774;SDS011;15926;51.348;6.596;2023-07-24T16:37:56;4.13;;;3.83;;
28774;SDS011;15926;51.348;6.596;2023-07-24T16:40:22;4.85;;;3.72;;
28774;SDS011;15926;51.348;6.596;2023-07-24T16:42:48;4.47;;;4.18;;
28774;SDS011;15926;51.348;6.596;2023-07-24T16:45:14;6.90;;;4.15;;
28774;SDS011;15926;51.348;6.596;2023-07-24T16:47:40;4.22;;;3.92;;
28774;SDS011;15926;51.348;6.596;2023-07-24T16:50:06;5.57;;;4.00;;
28774;SDS011;15926;51.348;6.596;2023-07-24T16:52:32;4.57;;;3.78;;
28774;SDS011;15926;51.348;6.596;2023-07-24T16:54:58;3.60;;;3.30;;
28774;SDS011;15926;51.348;6.596;2023-07-24T16:57:24;3.67;;;3.13;;
28774;SDS011;15926;51.348;6.596;2023-07-24T16:59:52;4.03;;;3.65;;
28774;SDS011;15926;51.348;6.596;2023-07-24T17:02:19;3.83;;;3.53;;
28774;SDS011;15926;51.348;6.596;2023-07-24T17:04:45;3.67;;;3.45;;
28774;SDS011;15926;51.348;6.596;2023-07-24T17:07:11;3.13;;;2.92;;
28774;SDS011;15926;51.348;6.596;2023-07-24T17:09:37;3.63;;;3.33;;
28774;SDS011;15926;51.348;6.596;2023-07-24T17:12:03;3.85;;;3.13;;
28774;SDS011;15926;51.348;6.596;2023-07-24T17:14:30;3.10;;;2.80;;
28774;SDS011;15926;51.348;6.596;2023-07-24T17:16:56;8.25;;;2.70;;
28774;SDS011;15926;51.348;6.596;2023-07-24T17:19:22;2.70;;;2.50;;
28774;SDS011;15926;51.348;6.596;2023-07-24T17:21:48;3.05;;;2.85;;
28774;SDS011;15926;51.348;6.596;2023-07-24T17:24:14;2.72;;;2.53;;
28774;SDS011;15926;51.348;6.596;2023-07-24T17:26:40;2.47;;;2.25;;
28774;SDS011;15926;51.348;6.596;2023-07-24T17:29:06;2.50;;;2.30;;
28774;SDS011;15926;51.348;6.596;2023-07-24T17:31:32;2.35;;;2.20;;
28774;SDS011;15926;51.348;6.596;2023-07-24T17:33:59;2.00;;;1.77;;
28774;SDS011;15926;51.348;6.596;2023-07-24T17:36:25;3.75;;;2.10;;
28774;SDS011;15926;51.348;6.596;2023-07-24T17:38:51;2.35;;;2.25;;
28774;SDS011;15926;51.348;6.596;2023-07-24T17:41:17;2.58;;;2.38;;
28774;SDS011;15926;51.348;6.596;2023-07-24T17:43:43;2.47;;;1.88;;
28774;SDS011;15926;51.348;6.596;2023-07-24T17:46:09;2.70;;;2.22;;
28774;SDS011;15926;51.348;6.596;2023-07-24T17:48:35;2.55;;;2.25;;
28774;SDS011;15926;51.348;6.596;2023-07-24T17:51:02;2.28;;;2.13;;
28774;SDS011;15926;51.348;6.596;2023-07-24T17:53:28;3.42;;;2.50;;
28774;SDS011;15926;51.348;6.596;2023-07-24T17:55:54;2.88;;;2.67;;
28774;SDS011;15926;51.348;6.596;2023-07-24T17:58:20;3.15;;;2.58;;
28774;SDS011;15926;51.348;6.596;2023-07-24T18:00:46;3.20;;;2.72;;
28774;SDS011;15926;51.348;6.596;2023-07-24T18:03:12;3.53;;;3.22;;
28774;SDS011;15926;51.348;6.596;2023-07-24T18:05:38;3.45;;;3.25;;
28774;SDS011;15926;51.348;6.596;2023-07-24T18:08:04;5.40;;;4.05;;
28774;SDS011;15926;51.348;6.596;2023-07-24T18:10:31;6.05;;;3.75;;
28774;SDS011;15926;51.348;6.596;2023-07-24T18:12:57;4.38;;;3.75;;
28774;SDS011;15926;51.348;6.596;2023-07-24T18:15:23;5.28;;;4.18;;
28774;SDS011;15926;51.348;6.596;2023-07-24T18:17:49;6.78;;;4.05;;
28774;SDS011;15926;51.348;6.596;2023-07-24T18:20:15;5.00;;;4.40;;
28774;SDS011;15926;51.348;6.596;2023-07-24T18:22:42;4.70;;;3.92;;
28774;SDS011;15926;51.348;6.596;2023-07-24T18:25:09;5.40;;;4.22;;
28774;SDS011;15926;51.348;6.596;2023-07-24T18:27:35;5.18;;;4.68;;
28774;SDS011;15926;51.348;6.596;2023-07-24T18:30:02;5.28;;;4.88;;
28774;SDS011;15926;51.348;6.596;2023-07-24T18:32:29;5.53;;;5.07;;
28774;SDS011;15926;51.348;6.596;2023-07-24T18:34:55;6.40;;;5.18;;
28774;SDS011;15926;51.348;6.596;2023-07-24T18:37:21;5.38;;;4.88;;
28774;SDS011;15926;51.348;6.596;2023-07-24T18:39:47;5.43;;;5.03;;
28774;SDS011;15926;51.348;6.596;2023-07-24T18:42:16;6.68;;;4.68;;
28774;SDS011;15926;51.348;6.596;2023-07-24T18:44:44;6.75;;;5.15;;
28774;SDS011;15926;51.348;6.596;2023-07-24T18:47:10;6.63;;;5.93;;
28774;SDS011;15926;51.348;6.596;2023-07-24T18:49:36;5.28;;;4.70;;
28774;SDS011;15926;51.348;6.596;2023-07-24T18:52:02;6.00;;;5.22;;